sensor_id;sensor_type;location;lat;lon;timestamp;P1;durP1;ratioP1;P2;durP2;ratioP2
18196;SDS011;9224;52.422;13.024;2022-10-16T00:01:36;2.57;;;2.00;;
18196;SDS011;9224;52.422;13.024;2022-10-16T00:04:03;2.45;;;2.25;;
18196;SDS011;9224;52.422;13.024;2022-10-16T00:06:30;2.63;;;2.43;;
18196;SDS011;9224;52.422;13.024;2022-10-16T00:08:56;2.55;;;2.35;;
18196;SDS011;9224;52.422;13.024;2022-10-16T00:11:26;2.45;;;2.25;;
18196;SDS011;9224;52.422;13.024;2022-10-16T00:13:56;2.47;;;2.33;;
18196;SDS011;9224;52.422;13.024;2022-10-16T00:16:25;2.55;;;2.35;;
18196;SDS011;9224;52.422;13.024;2022-10-16T00:18:52;2.30;;;2.20;;
18196;SDS011;9224;52.422;13.024;2022-10-16T00:21:19;2.72;;;2.53;;
18196;SDS011;9224;52.422;13.024;2022-10-16T00:23:46;2.17;;;2.08;;
18196;SDS011;9224;52.422;13.024;2022-10-16T00:26:16;2.10;;;2.00;;
18196;SDS011;9224;52.422;13.024;2022-10-16T00:28:44;2.30;;;2.10;;
18196;SDS011;9224;52.422;13.024;2022-10-16T00:31:13;3.28;;;2.47;;
18196;SDS011;9224;52.422;13.024;2022-10-16T00:33:40;2.10;;;2.00;;
18196;SDS011;9224;52.422;13.024;2022-10-16T00:36:08;2.87;;;2.00;;
18196;SDS011;9224;52.422;13.024;2022-10-16T00:38:36;2.67;;;2.15;;
18196;SDS011;9224;52.422;13.024;2022-10-16T00:41:03;2.17;;;2.08;;
18196;SDS011;9224;52.422;13.024;2022-10-16T00:43:38;2.20;;;2.00;;
18196;SDS011;9224;52.422;13.024;2022-10-16T00:46:09;2.30;;;2.20;;
18196;SDS011;9224;52.422;13.024;2022-10-16T00:48:39;2.30;;;2.20;;
18196;SDS011;9224;52.422;13.024;2022-10-16T00:51:06;2.63;;;2.10;;
18196;SDS011;9224;52.422;13.024;2022-10-16T00:53:33;2.00;;;1.90;;
18196;SDS011;9224;52.422;13.024;2022-10-16T00:56:01;2.40;;;2.20;;
18196;SDS011;9224;52.422;13.024;2022-10-16T00:58:28;2.28;;;2.10;;
18196;SDS011;9224;52.422;13.024;2022-10-16T01:00:55;2.25;;;2.10;;
18196;SDS011;9224;52.422;13.024;2022-10-16T01:03:27;2.13;;;2.00;;
18196;SDS011;9224;52.422;13.024;2022-10-16T01:05:58;3.63;;;2.13;;
18196;SDS011;9224;52.422;13.024;2022-10-16T01:08:34;2.47;;;2.28;;
18196;SDS011;9224;52.422;13.024;2022-10-16T01:11:06;2.10;;;2.00;;
18196;SDS011;9224;52.422;13.024;2022-10-16T01:13:38;2.25;;;2.10;;
18196;SDS011;9224;52.422;13.024;2022-10-16T01:16:07;2.30;;;2.10;;
18196;SDS011;9224;52.422;13.024;2022-10-16T01:18:42;2.40;;;2.30;;
18196;SDS011;9224;52.422;13.024;2022-10-16T01:21:10;2.22;;;1.90;;
18196;SDS011;9224;52.422;13.024;2022-10-16T01:23:45;2.42;;;2.22;;
18196;SDS011;9224;52.422;13.024;2022-10-16T01:26:19;2.60;;;2.28;;
18196;SDS011;9224;52.422;13.024;2022-10-16T01:28:52;2.00;;;1.90;;
18196;SDS011;9224;52.422;13.024;2022-10-16T01:31:22;2.50;;;2.30;;
18196;SDS011;9224;52.422;13.024;2022-10-16T01:33:51;2.10;;;2.00;;
18196;SDS011;9224;52.422;13.024;2022-10-16T01:36:23;2.50;;;2.30;;
18196;SDS011;9224;52.422;13.024;2022-10-16T01:38:53;2.33;;;2.13;;
18196;SDS011;9224;52.422;13.024;2022-10-16T01:41:21;2.20;;;2.10;;
18196;SDS011;9224;52.422;13.024;2022-10-16T01:43:52;2.15;;;2.05;;
18196;SDS011;9224;52.422;13.024;2022-10-16T01:46:22;2.45;;;2.10;;
18196;SDS011;9224;52.422;13.024;2022-10-16T01:48:49;2.40;;;2.20;;
18196;SDS011;9224;52.422;13.024;2022-10-16T01:51:17;2.15;;;2.05;;
18196;SDS011;9224;52.422;13.024;2022-10-16T01:53:46;2.20;;;2.10;;
18196;SDS011;9224;52.422;13.024;2022-10-16T01:56:14;2.00;;;1.90;;
18196;SDS011;9224;52.422;13.024;2022-10-16T01:58:43;2.40;;;2.20;;
18196;SDS011;9224;52.422;13.024;2022-10-16T02:01:15;2.30;;;2.13;;
18196;SDS011;9224;52.422;13.024;2022-10-16T02:03:44;2.13;;;2.03;;
18196;SDS011;9224;52.422;13.024;2022-10-16T02:06:12;2.30;;;2.10;;
18196;SDS011;9224;52.422;13.024;2022-10-16T02:08:38;2.65;;;2.45;;
18196;SDS011;9224;52.422;13.024;2022-10-16T02:11:09;2.20;;;2.10;;
18196;SDS011;9224;52.422;13.024;2022-10-16T02:13:37;2.28;;;2.08;;
18196;SDS011;9224;52.422;13.024;2022-10-16T02:16:32;2.30;;;2.13;;
18196;SDS011;9224;52.422;13.024;2022-10-16T02:19:18;2.10;;;2.00;;
18196;SDS011;9224;52.422;13.024;2022-10-16T02:22:05;2.35;;;2.22;;
18196;SDS011;9224;52.422;13.024;2022-10-16T02:24:53;2.15;;;2.05;;
18196;SDS011;9224;52.422;13.024;2022-10-16T02:27:23;2.40;;;2.30;;
18196;SDS011;9224;52.422;13.024;2022-10-16T02:29:53;2.38;;;2.17;;
18196;SDS011;9224;52.422;13.024;2022-10-16T02:32:27;2.30;;;2.10;;
18196;SDS011;9224;52.422;13.024;2022-10-16T02:34:56;2.38;;;2.17;;
18196;SDS011;9224;52.422;13.024;2022-10-16T02:37:24;2.50;;;2.30;;
18196;SDS011;9224;52.422;13.024;2022-10-16T02:39:51;2.28;;;2.15;;
18196;SDS011;9224;52.422;13.024;2022-10-16T02:42:18;2.30;;;2.20;;
18196;SDS011;9224;52.422;13.024;2022-10-16T02:44:44;2.25;;;2.13;;
18196;SDS011;9224;52.422;13.024;2022-10-16T02:47:11;2.35;;;2.20;;
18196;SDS011;9224;52.422;13.024;2022-10-16T02:49:39;2.63;;;2.20;;
18196;SDS011;9224;52.422;13.024;2022-10-16T02:52:06;2.40;;;2.30;;
18196;SDS011;9224;52.422;13.024;2022-10-16T02:54:33;2.47;;;2.30;;
18196;SDS011;9224;52.422;13.024;2022-10-16T02:56:59;2.15;;;2.05;;
18196;SDS011;9224;52.422;13.024;2022-10-16T02:59:26;2.53;;;2.33;;
18196;SDS011;9224;52.422;13.024;2022-10-16T03:01:52;2.78;;;2.58;;
18196;SDS011;9224;52.422;13.024;2022-10-16T03:04:19;2.70;;;2.50;;
18196;SDS011;9224;52.422;13.024;2022-10-16T03:06:46;2.40;;;2.30;;
18196;SDS011;9224;52.422;13.024;2022-10-16T03:09:13;2.60;;;2.40;;
18196;SDS011;9224;52.422;13.024;2022-10-16T03:11:40;2.55;;;2.35;;
18196;SDS011;9224;52.422;13.024;2022-10-16T03:14:06;3.17;;;2.58;;
18196;SDS011;9224;52.422;13.024;2022-10-16T03:16:33;2.80;;;2.60;;
18196;SDS011;9224;52.422;13.024;2022-10-16T03:18:59;2.55;;;2.30;;
18196;SDS011;9224;52.422;13.024;2022-10-16T03:21:26;2.60;;;2.38;;
18196;SDS011;9224;52.422;13.024;2022-10-16T03:23:54;2.60;;;2.40;;
18196;SDS011;9224;52.422;13.024;2022-10-16T03:26:20;2.50;;;2.30;;
18196;SDS011;9224;52.422;13.024;2022-10-16T03:28:47;2.83;;;2.63;;
18196;SDS011;9224;52.422;13.024;2022-10-16T03:31:13;2.42;;;2.22;;
18196;SDS011;9224;52.422;13.024;2022-10-16T03:33:40;2.50;;;2.30;;
18196;SDS011;9224;52.422;13.024;2022-10-16T03:36:06;2.83;;;2.45;;
18196;SDS011;9224;52.422;13.024;2022-10-16T03:38:33;2.85;;;2.65;;
18196;SDS011;9224;52.422;13.024;2022-10-16T03:41:01;2.70;;;2.50;;
18196;SDS011;9224;52.422;13.024;2022-10-16T03:43:28;2.50;;;2.30;;
18196;SDS011;9224;52.422;13.024;2022-10-16T03:45:55;4.85;;;2.50;;
18196;SDS011;9224;52.422;13.024;2022-10-16T03:48:21;2.75;;;2.55;;
18196;SDS011;9224;52.422;13.024;2022-10-16T03:50:48;2.45;;;2.35;;
18196;SDS011;9224;52.422;13.024;2022-10-16T03:53:15;2.72;;;2.53;;
18196;SDS011;9224;52.422;13.024;2022-10-16T03:55:42;2.97;;;2.50;;
18196;SDS011;9224;52.422;13.024;2022-10-16T03:58:10;3.25;;;2.70;;
18196;SDS011;9224;52.422;13.024;2022-10-16T04:00:39;2.95;;;2.70;;
18196;SDS011;9224;52.422;13.024;2022-10-16T04:03:06;2.60;;;2.40;;
18196;SDS011;9224;52.422;13.024;2022-10-16T04:05:33;2.92;;;2.72;;
18196;SDS011;9224;52.422;13.024;2022-10-16T04:07:59;2.90;;;2.70;;
18196;SDS011;9224;52.422;13.024;2022-10-16T04:10:26;2.80;;;2.60;;
18196;SDS011;9224;52.422;13.024;2022-10-16T04:12:52;2.85;;;2.70;;
18196;SDS011;9224;52.422;13.024;2022-10-16T04:15:22;2.97;;;2.78;;
18196;SDS011;9224;52.422;13.024;2022-10-16T04:17:49;3.00;;;2.70;;
18196;SDS011;9224;52.422;13.024;2022-10-16T04:20:16;3.00;;;2.80;;
18196;SDS011;9224;52.422;13.024;2022-10-16T04:22:42;4.35;;;2.90;;
18196;SDS011;9224;52.422;13.024;2022-10-16T04:25:09;3.90;;;2.70;;
18196;SDS011;9224;52.422;13.024;2022-10-16T04:27:36;2.63;;;2.53;;
18196;SDS011;9224;52.422;13.024;2022-10-16T04:30:03;2.80;;;2.60;;
18196;SDS011;9224;52.422;13.024;2022-10-16T04:32:31;3.38;;;3.08;;
18196;SDS011;9224;52.422;13.024;2022-10-16T04:34:57;2.97;;;2.78;;
18196;SDS011;9224;52.422;13.024;2022-10-16T04:37:24;3.05;;;2.85;;
18196;SDS011;9224;52.422;13.024;2022-10-16T04:39:51;3.40;;;3.10;;
18196;SDS011;9224;52.422;13.024;2022-10-16T04:42:17;3.23;;;2.93;;
18196;SDS011;9224;52.422;13.024;2022-10-16T04:44:44;3.53;;;3.28;;
18196;SDS011;9224;52.422;13.024;2022-10-16T04:47:10;3.88;;;3.20;;
18196;SDS011;9224;52.422;13.024;2022-10-16T04:49:38;3.35;;;3.15;;
18196;SDS011;9224;52.422;13.024;2022-10-16T04:52:05;4.18;;;3.50;;
18196;SDS011;9224;52.422;13.024;2022-10-16T04:54:32;3.30;;;3.10;;
18196;SDS011;9224;52.422;13.024;2022-10-16T04:56:58;3.00;;;2.80;;
18196;SDS011;9224;52.422;13.024;2022-10-16T04:59:25;4.53;;;3.20;;
18196;SDS011;9224;52.422;13.024;2022-10-16T05:01:51;3.65;;;2.85;;
18196;SDS011;9224;52.422;13.024;2022-10-16T05:04:17;3.13;;;2.85;;
18196;SDS011;9224;52.422;13.024;2022-10-16T05:06:45;3.00;;;2.80;;
18196;SDS011;9224;52.422;13.024;2022-10-16T05:09:12;3.00;;;2.80;;
18196;SDS011;9224;52.422;13.024;2022-10-16T05:11:38;2.78;;;2.58;;
18196;SDS011;9224;52.422;13.024;2022-10-16T05:14:05;2.83;;;2.70;;
18196;SDS011;9224;52.422;13.024;2022-10-16T05:16:31;3.28;;;2.92;;
18196;SDS011;9224;52.422;13.024;2022-10-16T05:18:57;3.30;;;3.10;;
18196;SDS011;9224;52.422;13.024;2022-10-16T05:21:24;3.20;;;2.90;;
18196;SDS011;9224;52.422;13.024;2022-10-16T05:23:52;2.92;;;2.72;;
18196;SDS011;9224;52.422;13.024;2022-10-16T05:26:19;2.80;;;2.60;;
18196;SDS011;9224;52.422;13.024;2022-10-16T05:28:45;3.17;;;2.88;;
18196;SDS011;9224;52.422;13.024;2022-10-16T05:31:12;2.90;;;2.70;;
18196;SDS011;9224;52.422;13.024;2022-10-16T05:33:38;2.83;;;2.60;;
18196;SDS011;9224;52.422;13.024;2022-10-16T05:36:05;3.47;;;2.93;;
18196;SDS011;9224;52.422;13.024;2022-10-16T05:38:33;2.92;;;2.72;;
18196;SDS011;9224;52.422;13.024;2022-10-16T05:41:01;3.38;;;3.08;;
18196;SDS011;9224;52.422;13.024;2022-10-16T05:43:28;3.15;;;2.92;;
18196;SDS011;9224;52.422;13.024;2022-10-16T05:45:55;2.70;;;2.50;;
18196;SDS011;9224;52.422;13.024;2022-10-16T05:48:22;2.70;;;2.47;;
18196;SDS011;9224;52.422;13.024;2022-10-16T05:50:55;3.15;;;2.80;;
18196;SDS011;9224;52.422;13.024;2022-10-16T05:53:22;2.95;;;2.65;;
18196;SDS011;9224;52.422;13.024;2022-10-16T05:55:53;3.00;;;2.80;;
18196;SDS011;9224;52.422;13.024;2022-10-16T05:58:21;2.85;;;2.65;;
18196;SDS011;9224;52.422;13.024;2022-10-16T06:00:54;2.90;;;2.70;;
18196;SDS011;9224;52.422;13.024;2022-10-16T06:03:21;3.00;;;2.80;;
18196;SDS011;9224;52.422;13.024;2022-10-16T06:05:48;3.03;;;2.83;;
18196;SDS011;9224;52.422;13.024;2022-10-16T06:08:14;3.03;;;2.72;;
18196;SDS011;9224;52.422;13.024;2022-10-16T06:10:41;2.95;;;2.75;;
18196;SDS011;9224;52.422;13.024;2022-10-16T06:13:07;3.00;;;2.70;;
18196;SDS011;9224;52.422;13.024;2022-10-16T06:15:35;2.85;;;2.65;;
18196;SDS011;9224;52.422;13.024;2022-10-16T06:18:03;2.60;;;2.47;;
18196;SDS011;9224;52.422;13.024;2022-10-16T06:20:30;3.85;;;2.80;;
18196;SDS011;9224;52.422;13.024;2022-10-16T06:22:57;3.20;;;3.00;;
18196;SDS011;9224;52.422;13.024;2022-10-16T06:25:23;3.08;;;2.88;;
18196;SDS011;9224;52.422;13.024;2022-10-16T06:27:49;4.15;;;2.90;;
18196;SDS011;9224;52.422;13.024;2022-10-16T06:30:16;3.10;;;2.90;;
18196;SDS011;9224;52.422;13.024;2022-10-16T06:32:44;3.97;;;3.10;;
18196;SDS011;9224;52.422;13.024;2022-10-16T06:35:10;3.40;;;3.20;;
18196;SDS011;9224;52.422;13.024;2022-10-16T06:37:36;3.33;;;2.80;;
18196;SDS011;9224;52.422;13.024;2022-10-16T06:40:03;3.25;;;3.05;;
18196;SDS011;9224;52.422;13.024;2022-10-16T06:42:30;3.50;;;3.20;;
18196;SDS011;9224;52.422;13.024;2022-10-16T06:44:57;3.33;;;3.13;;
18196;SDS011;9224;52.422;13.024;2022-10-16T06:47:23;3.28;;;3.08;;
18196;SDS011;9224;52.422;13.024;2022-10-16T06:49:51;3.57;;;3.27;;
18196;SDS011;9224;52.422;13.024;2022-10-16T06:52:17;3.60;;;3.30;;
18196;SDS011;9224;52.422;13.024;2022-10-16T06:54:44;3.65;;;3.35;;
18196;SDS011;9224;52.422;13.024;2022-10-16T06:57:10;3.17;;;2.97;;
18196;SDS011;9224;52.422;13.024;2022-10-16T06:59:37;3.10;;;2.90;;
18196;SDS011;9224;52.422;13.024;2022-10-16T07:02:03;3.05;;;2.85;;
18196;SDS011;9224;52.422;13.024;2022-10-16T07:04:30;2.85;;;2.55;;
18196;SDS011;9224;52.422;13.024;2022-10-16T07:06:58;3.72;;;2.72;;
18196;SDS011;9224;52.422;13.024;2022-10-16T07:09:26;2.78;;;2.50;;
18196;SDS011;9224;52.422;13.024;2022-10-16T07:11:52;2.90;;;2.70;;
18196;SDS011;9224;52.422;13.024;2022-10-16T07:14:20;4.57;;;2.80;;
18196;SDS011;9224;52.422;13.024;2022-10-16T07:16:47;2.75;;;2.50;;
18196;SDS011;9224;52.422;13.024;2022-10-16T07:19:14;3.40;;;2.60;;
18196;SDS011;9224;52.422;13.024;2022-10-16T07:21:42;2.70;;;2.50;;
18196;SDS011;9224;52.422;13.024;2022-10-16T07:24:12;3.30;;;3.00;;
18196;SDS011;9224;52.422;13.024;2022-10-16T07:26:39;3.40;;;3.10;;
18196;SDS011;9224;52.422;13.024;2022-10-16T07:29:06;3.20;;;2.90;;
18196;SDS011;9224;52.422;13.024;2022-10-16T07:31:33;3.15;;;2.95;;
18196;SDS011;9224;52.422;13.024;2022-10-16T07:33:59;3.40;;;3.00;;
18196;SDS011;9224;52.422;13.024;2022-10-16T07:36:26;2.97;;;2.78;;
18196;SDS011;9224;52.422;13.024;2022-10-16T07:38:53;3.15;;;2.85;;
18196;SDS011;9224;52.422;13.024;2022-10-16T07:41:21;3.08;;;2.85;;
18196;SDS011;9224;52.422;13.024;2022-10-16T07:43:47;3.00;;;2.80;;
18196;SDS011;9224;52.422;13.024;2022-10-16T07:46:15;2.80;;;2.50;;
18196;SDS011;9224;52.422;13.024;2022-10-16T07:48:42;2.80;;;2.60;;
18196;SDS011;9224;52.422;13.024;2022-10-16T07:51:12;2.40;;;2.30;;
18196;SDS011;9224;52.422;13.024;2022-10-16T07:53:40;3.08;;;2.13;;
18196;SDS011;9224;52.422;13.024;2022-10-16T07:56:06;2.53;;;2.33;;
18196;SDS011;9224;52.422;13.024;2022-10-16T07:58:35;2.40;;;2.23;;
18196;SDS011;9224;52.422;13.024;2022-10-16T08:01:02;2.10;;;2.00;;
18196;SDS011;9224;52.422;13.024;2022-10-16T08:03:29;2.42;;;2.10;;
18196;SDS011;9224;52.422;13.024;2022-10-16T08:05:56;1.90;;;1.80;;
18196;SDS011;9224;52.422;13.024;2022-10-16T08:08:23;2.10;;;1.98;;
18196;SDS011;9224;52.422;13.024;2022-10-16T08:10:49;2.70;;;1.80;;
18196;SDS011;9224;52.422;13.024;2022-10-16T08:13:16;1.58;;;1.48;;
18196;SDS011;9224;52.422;13.024;2022-10-16T08:15:44;2.95;;;1.80;;
18196;SDS011;9224;52.422;13.024;2022-10-16T08:18:12;2.20;;;2.05;;
18196;SDS011;9224;52.422;13.024;2022-10-16T08:20:39;2.50;;;1.83;;
18196;SDS011;9224;52.422;13.024;2022-10-16T08:23:07;1.92;;;1.83;;
18196;SDS011;9224;52.422;13.024;2022-10-16T08:25:34;2.30;;;2.10;;
18196;SDS011;9224;52.422;13.024;2022-10-16T08:28:02;2.90;;;2.00;;
18196;SDS011;9224;52.422;13.024;2022-10-16T08:30:29;1.65;;;1.48;;
18196;SDS011;9224;52.422;13.024;2022-10-16T08:32:57;3.23;;;1.80;;
18196;SDS011;9224;52.422;13.024;2022-10-16T08:35:23;2.20;;;2.00;;
18196;SDS011;9224;52.422;13.024;2022-10-16T08:37:50;1.70;;;1.60;;
18196;SDS011;9224;52.422;13.024;2022-10-16T08:40:19;1.90;;;1.80;;
18196;SDS011;9224;52.422;13.024;2022-10-16T08:42:51;1.80;;;1.70;;
18196;SDS011;9224;52.422;13.024;2022-10-16T08:48:16;1.70;;;1.60;;
18196;SDS011;9224;52.422;13.024;2022-10-16T08:50:45;1.73;;;1.63;;
18196;SDS011;9224;52.422;13.024;2022-10-16T08:53:14;1.73;;;1.63;;
18196;SDS011;9224;52.422;13.024;2022-10-16T08:55:42;2.15;;;1.80;;
18196;SDS011;9224;52.422;13.024;2022-10-16T08:58:10;1.65;;;1.55;;
18196;SDS011;9224;52.422;13.024;2022-10-16T09:00:39;2.50;;;1.85;;
18196;SDS011;9224;52.422;13.024;2022-10-16T09:03:07;1.90;;;1.70;;
18196;SDS011;9224;52.422;13.024;2022-10-16T09:05:52;1.67;;;1.58;;
18196;SDS011;9224;52.422;13.024;2022-10-16T09:08:26;1.63;;;1.52;;
18196;SDS011;9224;52.422;13.024;2022-10-16T09:10:56;1.80;;;1.70;;
18196;SDS011;9224;52.422;13.024;2022-10-16T09:13:26;2.60;;;1.40;;
18196;SDS011;9224;52.422;13.024;2022-10-16T09:15:55;1.85;;;1.40;;
18196;SDS011;9224;52.422;13.024;2022-10-16T09:18:29;1.30;;;1.20;;
18196;SDS011;9224;52.422;13.024;2022-10-16T09:21:00;1.63;;;1.52;;
18196;SDS011;9224;52.422;13.024;2022-10-16T09:23:30;1.52;;;1.42;;
18196;SDS011;9224;52.422;13.024;2022-10-16T09:25:59;1.50;;;1.40;;
18196;SDS011;9224;52.422;13.024;2022-10-16T09:28:25;1.60;;;1.40;;
18196;SDS011;9224;52.422;13.024;2022-10-16T09:30:52;1.58;;;1.48;;
18196;SDS011;9224;52.422;13.024;2022-10-16T09:33:20;1.30;;;1.20;;
18196;SDS011;9224;52.422;13.024;2022-10-16T09:35:50;1.20;;;1.00;;
18196;SDS011;9224;52.422;13.024;2022-10-16T09:38:21;1.20;;;1.10;;
18196;SDS011;9224;52.422;13.024;2022-10-16T09:40:49;2.45;;;1.30;;
18196;SDS011;9224;52.422;13.024;2022-10-16T09:43:19;1.83;;;1.45;;
18196;SDS011;9224;52.422;13.024;2022-10-16T09:45:54;1.73;;;1.13;;
18196;SDS011;9224;52.422;13.024;2022-10-16T09:48:22;2.20;;;1.60;;
18196;SDS011;9224;52.422;13.024;2022-10-16T09:50:56;1.33;;;1.23;;
18196;SDS011;9224;52.422;13.024;2022-10-16T09:53:24;1.20;;;0.98;;
18196;SDS011;9224;52.422;13.024;2022-10-16T09:55:53;0.80;;;0.80;;
18196;SDS011;9224;52.422;13.024;2022-10-16T09:58:21;1.40;;;1.30;;
18196;SDS011;9224;52.422;13.024;2022-10-16T10:00:51;2.55;;;1.52;;
18196;SDS011;9224;52.422;13.024;2022-10-16T10:03:29;2.00;;;1.90;;
18196;SDS011;9224;52.422;13.024;2022-10-16T10:06:05;1.27;;;1.17;;
18196;SDS011;9224;52.422;13.024;2022-10-16T10:08:40;1.73;;;1.23;;
18196;SDS011;9224;52.422;13.024;2022-10-16T10:11:06;3.05;;;1.90;;
18196;SDS011;9224;52.422;13.024;2022-10-16T10:13:33;3.08;;;2.60;;
18196;SDS011;9224;52.422;13.024;2022-10-16T10:15:59;2.90;;;2.65;;
18196;SDS011;9224;52.422;13.024;2022-10-16T10:18:25;1.53;;;1.43;;
18196;SDS011;9224;52.422;13.024;2022-10-16T10:20:59;1.48;;;1.38;;
18196;SDS011;9224;52.422;13.024;2022-10-16T10:23:28;2.85;;;1.50;;
18196;SDS011;9224;52.422;13.024;2022-10-16T10:25:56;2.20;;;1.23;;
18196;SDS011;9224;52.422;13.024;2022-10-16T10:31:22;1.10;;;0.98;;
18196;SDS011;9224;52.422;13.024;2022-10-16T10:33:54;2.37;;;1.60;;
18196;SDS011;9224;52.422;13.024;2022-10-16T10:36:28;2.00;;;1.30;;
18196;SDS011;9224;52.422;13.024;2022-10-16T10:39:19;1.85;;;1.38;;
18196;SDS011;9224;52.422;13.024;2022-10-16T10:42:01;1.43;;;1.33;;
18196;SDS011;9224;52.422;13.024;2022-10-16T10:44:39;2.50;;;1.70;;
18196;SDS011;9224;52.422;13.024;2022-10-16T10:47:20;2.90;;;1.23;;
18196;SDS011;9224;52.422;13.024;2022-10-16T10:49:56;1.35;;;1.25;;
18196;SDS011;9224;52.422;13.024;2022-10-16T10:52:33;1.30;;;1.20;;
18196;SDS011;9224;52.422;13.024;2022-10-16T10:55:10;1.15;;;1.05;;
18196;SDS011;9224;52.422;13.024;2022-10-16T10:57:48;1.48;;;1.35;;
18196;SDS011;9224;52.422;13.024;2022-10-16T11:00:23;1.40;;;1.25;;
18196;SDS011;9224;52.422;13.024;2022-10-16T11:02:55;1.58;;;1.10;;
18196;SDS011;9224;52.422;13.024;2022-10-16T11:05:35;1.52;;;1.13;;
18196;SDS011;9224;52.422;13.024;2022-10-16T11:08:07;1.52;;;1.23;;
18196;SDS011;9224;52.422;13.024;2022-10-16T11:10:40;2.13;;;1.15;;
18196;SDS011;9224;52.422;13.024;2022-10-16T11:13:15;2.17;;;0.90;;
18196;SDS011;9224;52.422;13.024;2022-10-16T11:15:46;2.70;;;1.20;;
18196;SDS011;9224;52.422;13.024;2022-10-16T11:18:16;1.20;;;1.08;;
18196;SDS011;9224;52.422;13.024;2022-10-16T11:20:45;1.27;;;0.98;;
18196;SDS011;9224;52.422;13.024;2022-10-16T11:23:16;1.13;;;1.00;;
18196;SDS011;9224;52.422;13.024;2022-10-16T11:25:46;1.13;;;0.80;;
18196;SDS011;9224;52.422;13.024;2022-10-16T11:28:15;4.53;;;1.00;;
18196;SDS011;9224;52.422;13.024;2022-10-16T11:30:46;1.10;;;1.00;;
18196;SDS011;9224;52.422;13.024;2022-10-16T11:33:26;2.00;;;1.20;;
18196;SDS011;9224;52.422;13.024;2022-10-16T11:35:59;1.75;;;0.95;;
18196;SDS011;9224;52.422;13.024;2022-10-16T11:38:29;2.60;;;1.20;;
18196;SDS011;9224;52.422;13.024;2022-10-16T11:41:00;3.00;;;1.10;;
18196;SDS011;9224;52.422;13.024;2022-10-16T11:43:34;2.10;;;1.23;;
18196;SDS011;9224;52.422;13.024;2022-10-16T11:46:07;1.25;;;0.98;;
18196;SDS011;9224;52.422;13.024;2022-10-16T11:48:39;0.98;;;0.88;;
18196;SDS011;9224;52.422;13.024;2022-10-16T11:51:11;0.88;;;0.80;;
18196;SDS011;9224;52.422;13.024;2022-10-16T11:53:43;1.02;;;0.90;;
18196;SDS011;9224;52.422;13.024;2022-10-16T11:56:15;2.95;;;1.20;;
18196;SDS011;9224;52.422;13.024;2022-10-16T11:58:47;2.17;;;1.98;;
18196;SDS011;9224;52.422;13.024;2022-10-16T12:01:21;2.83;;;2.40;;
18196;SDS011;9224;52.422;13.024;2022-10-16T12:03:56;1.58;;;1.00;;
18196;SDS011;9224;52.422;13.024;2022-10-16T12:06:41;1.25;;;1.00;;
18196;SDS011;9224;52.422;13.024;2022-10-16T12:09:13;1.10;;;0.80;;
18196;SDS011;9224;52.422;13.024;2022-10-16T12:11:53;2.57;;;1.10;;
18196;SDS011;9224;52.422;13.024;2022-10-16T12:14:32;1.02;;;0.82;;
18196;SDS011;9224;52.422;13.024;2022-10-16T12:17:02;0.73;;;0.67;;
18196;SDS011;9224;52.422;13.024;2022-10-16T12:19:31;1.02;;;0.90;;
18196;SDS011;9224;52.422;13.024;2022-10-16T12:21:58;1.25;;;0.70;;
18196;SDS011;9224;52.422;13.024;2022-10-16T12:24:34;2.67;;;1.23;;
18196;SDS011;9224;52.422;13.024;2022-10-16T12:27:04;1.70;;;0.90;;
18196;SDS011;9224;52.422;13.024;2022-10-16T12:29:33;1.63;;;1.13;;
18196;SDS011;9224;52.422;13.024;2022-10-16T12:32:02;1.52;;;1.00;;
18196;SDS011;9224;52.422;13.024;2022-10-16T12:34:31;3.47;;;0.88;;
18196;SDS011;9224;52.422;13.024;2022-10-16T12:37:10;2.10;;;0.90;;
18196;SDS011;9224;52.422;13.024;2022-10-16T12:39:39;1.00;;;0.90;;
18196;SDS011;9224;52.422;13.024;2022-10-16T12:42:19;1.60;;;0.90;;
18196;SDS011;9224;52.422;13.024;2022-10-16T12:44:47;1.48;;;0.80;;
18196;SDS011;9224;52.422;13.024;2022-10-16T12:47:19;1.30;;;0.73;;
18196;SDS011;9224;52.422;13.024;2022-10-16T12:49:49;0.85;;;0.85;;
18196;SDS011;9224;52.422;13.024;2022-10-16T12:52:28;1.60;;;1.05;;
18196;SDS011;9224;52.422;13.024;2022-10-16T12:54:58;0.90;;;0.63;;
18196;SDS011;9224;52.422;13.024;2022-10-16T12:57:37;0.57;;;0.43;;
18196;SDS011;9224;52.422;13.024;2022-10-16T13:00:12;1.17;;;0.82;;
18196;SDS011;9224;52.422;13.024;2022-10-16T13:02:48;2.25;;;0.60;;
18196;SDS011;9224;52.422;13.024;2022-10-16T13:05:46;1.58;;;0.88;;
18196;SDS011;9224;52.422;13.024;2022-10-16T13:08:39;1.40;;;1.30;;
18196;SDS011;9224;52.422;13.024;2022-10-16T13:11:17;1.55;;;0.88;;
18196;SDS011;9224;52.422;13.024;2022-10-16T13:13:59;2.65;;;1.20;;
18196;SDS011;9224;52.422;13.024;2022-10-16T13:16:34;1.30;;;0.93;;
18196;SDS011;9224;52.422;13.024;2022-10-16T13:19:18;1.98;;;1.35;;
18196;SDS011;9224;52.422;13.024;2022-10-16T13:21:50;1.90;;;1.25;;
18196;SDS011;9224;52.422;13.024;2022-10-16T13:24:28;1.90;;;1.02;;
18196;SDS011;9224;52.422;13.024;2022-10-16T13:27:07;0.50;;;0.50;;
18196;SDS011;9224;52.422;13.024;2022-10-16T13:29:45;0.90;;;0.85;;
18196;SDS011;9224;52.422;13.024;2022-10-16T13:32:20;1.93;;;0.57;;
18196;SDS011;9224;52.422;13.024;2022-10-16T13:34:48;0.85;;;0.70;;
18196;SDS011;9224;52.422;13.024;2022-10-16T13:37:19;1.42;;;0.73;;
18196;SDS011;9224;52.422;13.024;2022-10-16T13:39:50;0.80;;;0.70;;
18196;SDS011;9224;52.422;13.024;2022-10-16T13:42:24;1.20;;;0.70;;
18196;SDS011;9224;52.422;13.024;2022-10-16T13:48:40;1.20;;;0.97;;
18196;SDS011;9224;52.422;13.024;2022-10-16T13:51:11;0.93;;;0.70;;
18196;SDS011;9224;52.422;13.024;2022-10-16T13:53:39;0.88;;;0.63;;
18196;SDS011;9224;52.422;13.024;2022-10-16T13:56:07;1.58;;;0.80;;
18196;SDS011;9224;52.422;13.024;2022-10-16T13:58:38;0.77;;;0.70;;
18196;SDS011;9224;52.422;13.024;2022-10-16T14:01:12;4.38;;;1.20;;
18196;SDS011;9224;52.422;13.024;2022-10-16T14:03:44;2.63;;;0.93;;
18196;SDS011;9224;52.422;13.024;2022-10-16T14:06:15;0.70;;;0.65;;
18196;SDS011;9224;52.422;13.024;2022-10-16T14:08:44;0.77;;;0.57;;
18196;SDS011;9224;52.422;13.024;2022-10-16T14:11:20;0.90;;;0.80;;
18196;SDS011;9224;52.422;13.024;2022-10-16T14:13:47;0.80;;;0.80;;
18196;SDS011;9224;52.422;13.024;2022-10-16T14:16:18;0.80;;;0.80;;
18196;SDS011;9224;52.422;13.024;2022-10-16T14:18:49;1.10;;;0.90;;
18196;SDS011;9224;52.422;13.024;2022-10-16T14:21:23;1.30;;;0.80;;
18196;SDS011;9224;52.422;13.024;2022-10-16T14:23:49;1.30;;;0.73;;
18196;SDS011;9224;52.422;13.024;2022-10-16T14:26:17;1.20;;;1.10;;
18196;SDS011;9224;52.422;13.024;2022-10-16T14:28:47;1.20;;;0.70;;
18196;SDS011;9224;52.422;13.024;2022-10-16T14:31:23;0.65;;;0.65;;
18196;SDS011;9224;52.422;13.024;2022-10-16T14:33:56;3.38;;;0.73;;
18196;SDS011;9224;52.422;13.024;2022-10-16T14:36:23;1.45;;;0.70;;
18196;SDS011;9224;52.422;13.024;2022-10-16T14:38:54;1.60;;;1.07;;
18196;SDS011;9224;52.422;13.024;2022-10-16T14:41:24;0.47;;;0.47;;
18196;SDS011;9224;52.422;13.024;2022-10-16T14:43:52;1.33;;;0.60;;
18196;SDS011;9224;52.422;13.024;2022-10-16T14:46:21;0.93;;;0.87;;
18196;SDS011;9224;52.422;13.024;2022-10-16T14:48:51;1.80;;;0.73;;
18196;SDS011;9224;52.422;13.024;2022-10-16T14:51:23;1.48;;;1.05;;
18196;SDS011;9224;52.422;13.024;2022-10-16T14:53:50;1.20;;;0.60;;
18196;SDS011;9224;52.422;13.024;2022-10-16T14:56:17;2.53;;;1.00;;
18196;SDS011;9224;52.422;13.024;2022-10-16T14:58:45;1.08;;;0.88;;
18196;SDS011;9224;52.422;13.024;2022-10-16T15:01:11;2.17;;;0.77;;
18196;SDS011;9224;52.422;13.024;2022-10-16T15:03:38;1.10;;;0.85;;
18196;SDS011;9224;52.422;13.024;2022-10-16T15:08:38;1.30;;;0.60;;
18196;SDS011;9224;52.422;13.024;2022-10-16T15:11:05;0.82;;;0.82;;
18196;SDS011;9224;52.422;13.024;2022-10-16T15:13:34;1.67;;;0.90;;
18196;SDS011;9224;52.422;13.024;2022-10-16T15:16:01;1.50;;;1.17;;